sensor_id;sensor_type;location;lat;lon;timestamp;P1;durP1;ratioP1;P2;durP2;ratioP2
20458;SDS011;10388;52.314;7.938;2023-09-08T00:04:04;6.10;;;4.70;;
20458;SDS011;10388;52.314;7.938;2023-09-08T00:06:51;6.50;;;4.90;;
20458;SDS011;10388;52.314;7.938;2023-09-08T00:09:40;7.57;;;4.80;;
20458;SDS011;10388;52.314;7.938;2023-09-08T00:15:57;6.00;;;4.87;;
20458;SDS011;10388;52.314;7.938;2023-09-08T00:19:19;5.47;;;4.70;;
20458;SDS011;10388;52.314;7.938;2023-09-08T00:23:18;4.87;;;4.37;;
20458;SDS011;10388;52.314;7.938;2023-09-08T00:25:52;6.57;;;4.93;;
20458;SDS011;10388;52.314;7.938;2023-09-08T00:28:56;6.60;;;5.00;;
20458;SDS011;10388;52.314;7.938;2023-09-08T00:42:40;5.53;;;4.90;;
20458;SDS011;10388;52.314;7.938;2023-09-08T00:48:41;7.70;;;5.20;;
20458;SDS011;10388;52.314;7.938;2023-09-08T00:51:12;6.37;;;4.93;;
20458;SDS011;10388;52.314;7.938;2023-09-08T00:53:43;7.03;;;5.03;;
20458;SDS011;10388;52.314;7.938;2023-09-08T00:56:14;6.37;;;5.30;;
20458;SDS011;10388;52.314;7.938;2023-09-08T00:58:45;7.63;;;5.10;;
20458;SDS011;10388;52.314;7.938;2023-09-08T01:01:16;5.37;;;4.43;;
20458;SDS011;10388;52.314;7.938;2023-09-08T01:03:47;6.30;;;5.07;;
20458;SDS011;10388;52.314;7.938;2023-09-08T01:08:58;6.23;;;5.07;;
20458;SDS011;10388;52.314;7.938;2023-09-08T01:11:29;5.87;;;5.00;;
20458;SDS011;10388;52.314;7.938;2023-09-08T01:14:03;6.00;;;5.17;;
20458;SDS011;10388;52.314;7.938;2023-09-08T01:16:34;6.20;;;5.60;;
20458;SDS011;10388;52.314;7.938;2023-09-08T01:19:05;5.70;;;5.07;;
20458;SDS011;10388;52.314;7.938;2023-09-08T01:25:11;5.67;;;5.10;;
20458;SDS011;10388;52.314;7.938;2023-09-08T01:27:46;7.57;;;5.53;;
20458;SDS011;10388;52.314;7.938;2023-09-08T01:30:23;6.90;;;5.17;;
20458;SDS011;10388;52.314;7.938;2023-09-08T01:32:56;7.37;;;4.83;;
20458;SDS011;10388;52.314;7.938;2023-09-08T01:35:27;5.93;;;5.30;;
20458;SDS011;10388;52.314;7.938;2023-09-08T01:37:58;7.30;;;5.13;;
20458;SDS011;10388;52.314;7.938;2023-09-08T01:40:28;8.70;;;5.37;;
20458;SDS011;10388;52.314;7.938;2023-09-08T01:42:59;7.03;;;5.57;;
20458;SDS011;10388;52.314;7.938;2023-09-08T01:45:30;7.07;;;5.37;;
20458;SDS011;10388;52.314;7.938;2023-09-08T01:48:01;5.77;;;4.90;;
20458;SDS011;10388;52.314;7.938;2023-09-08T01:50:31;5.47;;;4.97;;
20458;SDS011;10388;52.314;7.938;2023-09-08T01:53:02;9.13;;;5.30;;
20458;SDS011;10388;52.314;7.938;2023-09-08T01:55:33;5.27;;;4.77;;
20458;SDS011;10388;52.314;7.938;2023-09-08T01:58:03;9.63;;;5.20;;
20458;SDS011;10388;52.314;7.938;2023-09-08T02:00:34;5.77;;;5.20;;
20458;SDS011;10388;52.314;7.938;2023-09-08T02:03:05;8.90;;;5.53;;
20458;SDS011;10388;52.314;7.938;2023-09-08T02:05:35;5.13;;;4.63;;
20458;SDS011;10388;52.314;7.938;2023-09-08T02:08:08;5.47;;;4.97;;
20458;SDS011;10388;52.314;7.938;2023-09-08T02:10:39;5.63;;;5.03;;
20458;SDS011;10388;52.314;7.938;2023-09-08T02:13:10;5.83;;;5.17;;
20458;SDS011;10388;52.314;7.938;2023-09-08T02:15:41;6.60;;;5.30;;
20458;SDS011;10388;52.314;7.938;2023-09-08T02:18:11;6.93;;;5.10;;
20458;SDS011;10388;52.314;7.938;2023-09-08T02:20:43;5.50;;;5.00;;
20458;SDS011;10388;52.314;7.938;2023-09-08T02:23:13;6.43;;;5.63;;
20458;SDS011;10388;52.314;7.938;2023-09-08T02:25:44;7.23;;;5.10;;
20458;SDS011;10388;52.314;7.938;2023-09-08T02:28:14;5.60;;;4.97;;
20458;SDS011;10388;52.314;7.938;2023-09-08T02:30:45;5.30;;;4.80;;
20458;SDS011;10388;52.314;7.938;2023-09-08T02:33:16;5.70;;;5.20;;
20458;SDS011;10388;52.314;7.938;2023-09-08T02:35:46;6.13;;;5.53;;
20458;SDS011;10388;52.314;7.938;2023-09-08T02:38:17;5.30;;;4.80;;
20458;SDS011;10388;52.314;7.938;2023-09-08T02:40:47;5.20;;;4.70;;
20458;SDS011;10388;52.314;7.938;2023-09-08T02:43:18;5.73;;;4.57;;
20458;SDS011;10388;52.314;7.938;2023-09-08T02:45:49;5.30;;;4.80;;
20458;SDS011;10388;52.314;7.938;2023-09-08T02:48:19;5.23;;;4.73;;
20458;SDS011;10388;52.314;7.938;2023-09-08T02:50:50;5.70;;;4.73;;
20458;SDS011;10388;52.314;7.938;2023-09-08T02:53:21;6.57;;;4.97;;
20458;SDS011;10388;52.314;7.938;2023-09-08T02:55:53;5.13;;;4.63;;
20458;SDS011;10388;52.314;7.938;2023-09-08T02:58:23;5.97;;;4.90;;
20458;SDS011;10388;52.314;7.938;2023-09-08T03:00:57;6.73;;;5.07;;
20458;SDS011;10388;52.314;7.938;2023-09-08T03:03:28;4.97;;;4.57;;
20458;SDS011;10388;52.314;7.938;2023-09-08T03:05:58;5.27;;;4.80;;
20458;SDS011;10388;52.314;7.938;2023-09-08T03:08:33;5.47;;;4.97;;
20458;SDS011;10388;52.314;7.938;2023-09-08T03:11:03;6.77;;;4.97;;
20458;SDS011;10388;52.314;7.938;2023-09-08T03:13:37;5.33;;;4.83;;
20458;SDS011;10388;52.314;7.938;2023-09-08T03:16:08;5.40;;;4.73;;
20458;SDS011;10388;52.314;7.938;2023-09-08T03:18:39;9.30;;;5.30;;
20458;SDS011;10388;52.314;7.938;2023-09-08T03:21:09;6.90;;;5.50;;
20458;SDS011;10388;52.314;7.938;2023-09-08T03:23:43;5.77;;;5.07;;
20458;SDS011;10388;52.314;7.938;2023-09-08T03:26:15;7.17;;;5.10;;
20458;SDS011;10388;52.314;7.938;2023-09-08T03:28:46;6.73;;;5.33;;
20458;SDS011;10388;52.314;7.938;2023-09-08T03:31:16;6.13;;;5.03;;
20458;SDS011;10388;52.314;7.938;2023-09-08T03:33:48;7.83;;;6.00;;
20458;SDS011;10388;52.314;7.938;2023-09-08T03:36:18;6.53;;;5.20;;
20458;SDS011;10388;52.314;7.938;2023-09-08T03:38:49;5.93;;;5.43;;
20458;SDS011;10388;52.314;7.938;2023-09-08T03:41:19;6.20;;;5.60;;
20458;SDS011;10388;52.314;7.938;2023-09-08T03:43:50;6.63;;;5.40;;
20458;SDS011;10388;52.314;7.938;2023-09-08T03:46:20;7.33;;;5.83;;
20458;SDS011;10388;52.314;7.938;2023-09-08T03:48:51;9.57;;;5.13;;
20458;SDS011;10388;52.314;7.938;2023-09-08T03:51:22;7.17;;;5.83;;
20458;SDS011;10388;52.314;7.938;2023-09-08T03:53:53;6.50;;;5.90;;
20458;SDS011;10388;52.314;7.938;2023-09-08T03:56:23;6.93;;;5.37;;
20458;SDS011;10388;52.314;7.938;2023-09-08T03:58:54;8.30;;;5.37;;
20458;SDS011;10388;52.314;7.938;2023-09-08T04:01:24;6.50;;;5.50;;
20458;SDS011;10388;52.314;7.938;2023-09-08T04:03:55;7.60;;;5.73;;
20458;SDS011;10388;52.314;7.938;2023-09-08T04:06:25;6.20;;;5.60;;
20458;SDS011;10388;52.314;7.938;2023-09-08T04:08:58;8.30;;;5.53;;
20458;SDS011;10388;52.314;7.938;2023-09-08T04:11:28;7.20;;;5.80;;
20458;SDS011;10388;52.314;7.938;2023-09-08T04:13:59;7.03;;;6.00;;
20458;SDS011;10388;52.314;7.938;2023-09-08T04:16:29;7.03;;;5.87;;
20458;SDS011;10388;52.314;7.938;2023-09-08T04:19:00;6.67;;;6.07;;
20458;SDS011;10388;52.314;7.938;2023-09-08T04:21:30;8.07;;;6.00;;
20458;SDS011;10388;52.314;7.938;2023-09-08T04:24:01;6.53;;;5.93;;
20458;SDS011;10388;52.314;7.938;2023-09-08T04:26:31;6.87;;;6.17;;
20458;SDS011;10388;52.314;7.938;2023-09-08T04:29:02;7.13;;;6.40;;
20458;SDS011;10388;52.314;7.938;2023-09-08T04:31:33;6.50;;;5.90;;
20458;SDS011;10388;52.314;7.938;2023-09-08T04:34:03;6.50;;;5.83;;
20458;SDS011;10388;52.314;7.938;2023-09-08T04:36:33;6.47;;;5.87;;
20458;SDS011;10388;52.314;7.938;2023-09-08T04:39:04;6.77;;;6.17;;
20458;SDS011;10388;52.314;7.938;2023-09-08T04:41:35;6.33;;;5.73;;
20458;SDS011;10388;52.314;7.938;2023-09-08T04:44:05;7.93;;;6.30;;
20458;SDS011;10388;52.314;7.938;2023-09-08T04:46:36;7.10;;;6.40;;
20458;SDS011;10388;52.314;7.938;2023-09-08T04:49:06;7.20;;;6.20;;
20458;SDS011;10388;52.314;7.938;2023-09-08T04:51:37;8.63;;;7.30;;
20458;SDS011;10388;52.314;7.938;2023-09-08T04:54:07;7.83;;;6.30;;
20458;SDS011;10388;52.314;7.938;2023-09-08T04:56:38;7.77;;;6.23;;
20458;SDS011;10388;52.314;7.938;2023-09-08T04:59:10;7.50;;;6.70;;
20458;SDS011;10388;52.314;7.938;2023-09-08T05:01:40;7.03;;;6.37;;
20458;SDS011;10388;52.314;7.938;2023-09-08T05:04:11;7.47;;;6.40;;
20458;SDS011;10388;52.314;7.938;2023-09-08T05:06:41;7.20;;;6.50;;
20458;SDS011;10388;52.314;7.938;2023-09-08T05:09:12;8.30;;;6.73;;
20458;SDS011;10388;52.314;7.938;2023-09-08T05:11:43;6.80;;;6.20;;
20458;SDS011;10388;52.314;7.938;2023-09-08T05:14:13;8.33;;;6.57;;
20458;SDS011;10388;52.314;7.938;2023-09-08T05:16:44;10.63;;;6.00;;
20458;SDS011;10388;52.314;7.938;2023-09-08T05:19:19;9.57;;;6.33;;
20458;SDS011;10388;52.314;7.938;2023-09-08T05:21:50;7.10;;;6.43;;
20458;SDS011;10388;52.314;7.938;2023-09-08T05:24:22;8.30;;;6.10;;
20458;SDS011;10388;52.314;7.938;2023-09-08T05:26:52;10.20;;;6.43;;
20458;SDS011;10388;52.314;7.938;2023-09-08T05:29:23;7.07;;;6.37;;
20458;SDS011;10388;52.314;7.938;2023-09-08T05:31:54;7.77;;;6.43;;
20458;SDS011;10388;52.314;7.938;2023-09-08T05:34:24;7.40;;;6.50;;
20458;SDS011;10388;52.314;7.938;2023-09-08T05:36:55;8.73;;;6.30;;
20458;SDS011;10388;52.314;7.938;2023-09-08T05:39:25;8.17;;;6.63;;
20458;SDS011;10388;52.314;7.938;2023-09-08T05:41:56;8.13;;;6.70;;
20458;SDS011;10388;52.314;7.938;2023-09-08T05:44:26;7.67;;;6.20;;
20458;SDS011;10388;52.314;7.938;2023-09-08T05:46:57;7.83;;;6.00;;
20458;SDS011;10388;52.314;7.938;2023-09-08T05:49:27;7.40;;;6.27;;
20458;SDS011;10388;52.314;7.938;2023-09-08T05:51:58;7.33;;;6.33;;
20458;SDS011;10388;52.314;7.938;2023-09-08T05:54:28;8.33;;;6.23;;
20458;SDS011;10388;52.314;7.938;2023-09-08T05:57:00;7.67;;;6.17;;
20458;SDS011;10388;52.314;7.938;2023-09-08T05:59:30;7.13;;;6.03;;
20458;SDS011;10388;52.314;7.938;2023-09-08T06:02:01;9.43;;;6.17;;
20458;SDS011;10388;52.314;7.938;2023-09-08T06:04:31;7.77;;;5.80;;
20458;SDS011;10388;52.314;7.938;2023-09-08T06:07:02;8.80;;;6.47;;
20458;SDS011;10388;52.314;7.938;2023-09-08T06:09:33;8.03;;;6.03;;
20458;SDS011;10388;52.314;7.938;2023-09-08T06:12:04;8.60;;;5.77;;
20458;SDS011;10388;52.314;7.938;2023-09-08T06:14:34;8.67;;;6.23;;
20458;SDS011;10388;52.314;7.938;2023-09-08T06:17:05;7.67;;;5.80;;
20458;SDS011;10388;52.314;7.938;2023-09-08T06:19:35;8.50;;;6.00;;
20458;SDS011;10388;52.314;7.938;2023-09-08T06:22:06;8.27;;;5.37;;
20458;SDS011;10388;52.314;7.938;2023-09-08T06:24:36;9.50;;;5.73;;
20458;SDS011;10388;52.314;7.938;2023-09-08T06:27:07;9.47;;;5.60;;
20458;SDS011;10388;52.314;7.938;2023-09-08T06:29:38;8.57;;;5.93;;
20458;SDS011;10388;52.314;7.938;2023-09-08T06:32:10;8.13;;;5.73;;
20458;SDS011;10388;52.314;7.938;2023-09-08T06:34:40;6.83;;;5.23;;
20458;SDS011;10388;52.314;7.938;2023-09-08T06:37:12;8.23;;;5.83;;
20458;SDS011;10388;52.314;7.938;2023-09-08T06:39:43;6.87;;;5.47;;
20458;SDS011;10388;52.314;7.938;2023-09-08T06:42:13;8.33;;;5.53;;
20458;SDS011;10388;52.314;7.938;2023-09-08T06:44:44;6.10;;;5.50;;
20458;SDS011;10388;52.314;7.938;2023-09-08T06:47:14;14.80;;;6.80;;
20458;SDS011;10388;52.314;7.938;2023-09-08T06:49:45;13.17;;;5.70;;
20458;SDS011;10388;52.314;7.938;2023-09-08T06:52:17;8.47;;;5.53;;
20458;SDS011;10388;52.314;7.938;2023-09-08T06:54:48;6.23;;;4.97;;
20458;SDS011;10388;52.314;7.938;2023-09-08T06:57:18;5.97;;;5.37;;
20458;SDS011;10388;52.314;7.938;2023-09-08T06:59:49;5.93;;;5.00;;
20458;SDS011;10388;52.314;7.938;2023-09-08T07:02:20;8.37;;;5.13;;
20458;SDS011;10388;52.314;7.938;2023-09-08T07:04:50;6.27;;;5.10;;
20458;SDS011;10388;52.314;7.938;2023-09-08T07:07:21;5.13;;;4.63;;
20458;SDS011;10388;52.314;7.938;2023-09-08T07:09:53;7.03;;;4.67;;
20458;SDS011;10388;52.314;7.938;2023-09-08T07:12:23;7.03;;;4.70;;
20458;SDS011;10388;52.314;7.938;2023-09-08T07:14:54;5.60;;;4.67;;
20458;SDS011;10388;52.314;7.938;2023-09-08T07:17:24;6.23;;;4.53;;
20458;SDS011;10388;52.314;7.938;2023-09-08T07:19:55;6.30;;;4.67;;
20458;SDS011;10388;52.314;7.938;2023-09-08T07:22:25;7.53;;;4.50;;
20458;SDS011;10388;52.314;7.938;2023-09-08T07:24:56;6.43;;;4.43;;
20458;SDS011;10388;52.314;7.938;2023-09-08T07:27:26;4.70;;;3.83;;
20458;SDS011;10388;52.314;7.938;2023-09-08T07:29:57;5.47;;;4.57;;
20458;SDS011;10388;52.314;7.938;2023-09-08T07:32:27;4.50;;;4.10;;
20458;SDS011;10388;52.314;7.938;2023-09-08T07:34:58;4.13;;;3.73;;
20458;SDS011;10388;52.314;7.938;2023-09-08T07:37:28;5.17;;;3.97;;
20458;SDS011;10388;52.314;7.938;2023-09-08T07:39:59;8.43;;;4.00;;
20458;SDS011;10388;52.314;7.938;2023-09-08T07:42:30;5.93;;;4.00;;
20458;SDS011;10388;52.314;7.938;2023-09-08T07:45:01;7.37;;;4.23;;
20458;SDS011;10388;52.314;7.938;2023-09-08T07:47:31;4.00;;;3.60;;
20458;SDS011;10388;52.314;7.938;2023-09-08T07:53:05;6.20;;;3.40;;
20458;SDS011;10388;52.314;7.938;2023-09-08T07:55:36;4.30;;;3.90;;
20458;SDS011;10388;52.314;7.938;2023-09-08T07:58:07;3.40;;;3.10;;
20458;SDS011;10388;52.314;7.938;2023-09-08T08:00:38;4.10;;;3.70;;
20458;SDS011;10388;52.314;7.938;2023-09-08T08:03:08;3.50;;;3.20;;
20458;SDS011;10388;52.314;7.938;2023-09-08T08:05:39;4.83;;;3.70;;
20458;SDS011;10388;52.314;7.938;2023-09-08T08:08:09;4.77;;;3.30;;
20458;SDS011;10388;52.314;7.938;2023-09-08T08:10:40;3.93;;;3.10;;
20458;SDS011;10388;52.314;7.938;2023-09-08T08:13:12;4.00;;;3.60;;
20458;SDS011;10388;52.314;7.938;2023-09-08T08:15:43;4.43;;;3.20;;
20458;SDS011;10388;52.314;7.938;2023-09-08T08:18:15;3.70;;;2.97;;
20458;SDS011;10388;52.314;7.938;2023-09-08T08:20:46;4.37;;;3.20;;
20458;SDS011;10388;52.314;7.938;2023-09-08T08:23:16;3.37;;;3.07;;
20458;SDS011;10388;52.314;7.938;2023-09-08T08:25:48;4.53;;;3.13;;
20458;SDS011;10388;52.314;7.938;2023-09-08T08:28:19;5.97;;;3.50;;
20458;SDS011;10388;52.314;7.938;2023-09-08T08:30:50;4.60;;;2.73;;
20458;SDS011;10388;52.314;7.938;2023-09-08T08:33:21;4.73;;;3.17;;
20458;SDS011;10388;52.314;7.938;2023-09-08T08:35:53;8.27;;;3.40;;
20458;SDS011;10388;52.314;7.938;2023-09-08T08:38:23;3.77;;;2.83;;
20458;SDS011;10388;52.314;7.938;2023-09-08T08:40:54;4.57;;;3.03;;
20458;SDS011;10388;52.314;7.938;2023-09-08T08:43:24;4.40;;;2.90;;
20458;SDS011;10388;52.314;7.938;2023-09-08T08:45:55;3.90;;;2.90;;
20458;SDS011;10388;52.314;7.938;2023-09-08T08:48:29;4.30;;;2.90;;
20458;SDS011;10388;52.314;7.938;2023-09-08T08:51:01;6.13;;;2.90;;
20458;SDS011;10388;52.314;7.938;2023-09-08T08:53:32;4.63;;;2.53;;
20458;SDS011;10388;52.314;7.938;2023-09-08T08:56:05;3.27;;;2.80;;
20458;SDS011;10388;52.314;7.938;2023-09-08T08:58:39;4.33;;;3.13;;
20458;SDS011;10388;52.314;7.938;2023-09-08T09:01:10;4.90;;;3.00;;
20458;SDS011;10388;52.314;7.938;2023-09-08T09:03:42;5.43;;;3.10;;
20458;SDS011;10388;52.314;7.938;2023-09-08T09:06:14;5.17;;;3.07;;
20458;SDS011;10388;52.314;7.938;2023-09-08T09:08:45;3.43;;;2.90;;
20458;SDS011;10388;52.314;7.938;2023-09-08T09:11:16;4.27;;;2.87;;
20458;SDS011;10388;52.314;7.938;2023-09-08T09:13:47;5.60;;;3.20;;
20458;SDS011;10388;52.314;7.938;2023-09-08T09:16:17;4.07;;;2.90;;
20458;SDS011;10388;52.314;7.938;2023-09-08T09:18:53;6.17;;;3.20;;
20458;SDS011;10388;52.314;7.938;2023-09-08T09:21:41;5.13;;;2.80;;
20458;SDS011;10388;52.314;7.938;2023-09-08T09:24:18;3.13;;;2.63;;
20458;SDS011;10388;52.314;7.938;2023-09-08T09:27:03;3.67;;;3.00;;
20458;SDS011;10388;52.314;7.938;2023-09-08T09:29:47;2.77;;;2.57;;
20458;SDS011;10388;52.314;7.938;2023-09-08T09:32:22;4.10;;;2.73;;
20458;SDS011;10388;52.314;7.938;2023-09-08T09:34:54;2.77;;;2.37;;
20458;SDS011;10388;52.314;7.938;2023-09-08T09:37:24;3.37;;;2.90;;
20458;SDS011;10388;52.314;7.938;2023-09-08T09:39:55;3.30;;;2.30;;
20458;SDS011;10388;52.314;7.938;2023-09-08T09:42:25;7.50;;;2.80;;
20458;SDS011;10388;52.314;7.938;2023-09-08T09:44:58;3.93;;;2.97;;
20458;SDS011;10388;52.314;7.938;2023-09-08T09:47:31;3.70;;;2.90;;
20458;SDS011;10388;52.314;7.938;2023-09-08T09:50:01;5.03;;;2.93;;
20458;SDS011;10388;52.314;7.938;2023-09-08T09:52:32;3.57;;;2.60;;
20458;SDS011;10388;52.314;7.938;2023-09-08T09:55:09;4.90;;;2.93;;
20458;SDS011;10388;52.314;7.938;2023-09-08T09:57:40;3.30;;;2.93;;
20458;SDS011;10388;52.314;7.938;2023-09-08T10:00:11;4.33;;;2.67;;
20458;SDS011;10388;52.314;7.938;2023-09-08T10:02:42;4.70;;;3.10;;
20458;SDS011;10388;52.314;7.938;2023-09-08T10:05:13;3.90;;;2.90;;
20458;SDS011;10388;52.314;7.938;2023-09-08T10:07:45;4.30;;;3.08;;
20458;SDS011;10388;52.314;7.938;2023-09-08T10:10:17;4.47;;;2.60;;
20458;SDS011;10388;52.314;7.938;2023-09-08T10:12:52;3.70;;;2.90;;
20458;SDS011;10388;52.314;7.938;2023-09-08T10:15:24;3.95;;;2.88;;
20458;SDS011;10388;52.314;7.938;2023-09-08T10:17:55;3.30;;;2.75;;
20458;SDS011;10388;52.314;7.938;2023-09-08T10:20:27;4.03;;;2.83;;
20458;SDS011;10388;52.314;7.938;2023-09-08T10:25:53;6.82;;;3.38;;
20458;SDS011;10388;52.314;7.938;2023-09-08T10:28:30;5.30;;;2.77;;
20458;SDS011;10388;52.314;7.938;2023-09-08T10:31:02;5.60;;;2.70;;
20458;SDS011;10388;52.314;7.938;2023-09-08T10:33:33;3.30;;;2.50;;
20458;SDS011;10388;52.314;7.938;2023-09-08T10:36:05;4.47;;;2.72;;
20458;SDS011;10388;52.314;7.938;2023-09-08T10:38:38;4.00;;;2.30;;
20458;SDS011;10388;52.314;7.938;2023-09-08T10:43:55;3.93;;;2.53;;
20458;SDS011;10388;52.314;7.938;2023-09-08T10:46:27;2.47;;;2.28;;
20458;SDS011;10388;52.314;7.938;2023-09-08T10:49:03;2.53;;;2.33;;
20458;SDS011;10388;52.314;7.938;2023-09-08T10:51:36;4.17;;;2.70;;
20458;SDS011;10388;52.314;7.938;2023-09-08T10:54:08;3.25;;;2.55;;
20458;SDS011;10388;52.314;7.938;2023-09-08T10:56:56;2.78;;;2.20;;
20458;SDS011;10388;52.314;7.938;2023-09-08T10:59:34;4.75;;;2.63;;
20458;SDS011;10388;52.314;7.938;2023-09-08T11:02:05;2.65;;;2.30;;
20458;SDS011;10388;52.314;7.938;2023-09-08T11:04:35;2.30;;;2.10;;
20458;SDS011;10388;52.314;7.938;2023-09-08T11:07:07;2.30;;;2.10;;
20458;SDS011;10388;52.314;7.938;2023-09-08T11:09:37;2.55;;;2.35;;
20458;SDS011;10388;52.314;7.938;2023-09-08T11:12:08;3.15;;;2.10;;
20458;SDS011;10388;52.314;7.938;2023-09-08T11:14:38;2.97;;;2.30;;
20458;SDS011;10388;52.314;7.938;2023-09-08T11:17:09;2.92;;;2.28;;
20458;SDS011;10388;52.314;7.938;2023-09-08T11:19:44;4.35;;;2.70;;
20458;SDS011;10388;52.314;7.938;2023-09-08T11:22:21;2.83;;;2.63;;
20458;SDS011;10388;52.314;7.938;2023-09-08T11:24:56;2.97;;;2.15;;
20458;SDS011;10388;52.314;7.938;2023-09-08T11:27:27;3.85;;;2.33;;
20458;SDS011;10388;52.314;7.938;2023-09-08T11:29:58;3.22;;;2.20;;
20458;SDS011;10388;52.314;7.938;2023-09-08T11:32:32;2.95;;;2.53;;
20458;SDS011;10388;52.314;7.938;2023-09-08T11:35:07;3.67;;;2.30;;
20458;SDS011;10388;52.314;7.938;2023-09-08T11:37:40;2.53;;;2.33;;
20458;SDS011;10388;52.314;7.938;2023-09-08T11:40:14;2.53;;;2.33;;
20458;SDS011;10388;52.314;7.938;2023-09-08T11:42:44;4.07;;;2.70;;
20458;SDS011;10388;52.314;7.938;2023-09-08T11:45:16;3.58;;;2.60;;
20458;SDS011;10388;52.314;7.938;2023-09-08T11:47:50;2.78;;;2.58;;
20458;SDS011;10388;52.314;7.938;2023-09-08T11:50:23;2.90;;;2.60;;
20458;SDS011;10388;52.314;7.938;2023-09-08T11:52:54;2.85;;;2.47;;
20458;SDS011;10388;52.314;7.938;2023-09-08T11:55:24;2.33;;;2.13;;
20458;SDS011;10388;52.314;7.938;2023-09-08T11:57:55;2.70;;;2.25;;
20458;SDS011;10388;52.314;7.938;2023-09-08T12:00:32;3.15;;;2.70;;
20458;SDS011;10388;52.314;7.938;2023-09-08T12:03:14;3.75;;;2.50;;
20458;SDS011;10388;52.314;7.938;2023-09-08T12:05:55;3.15;;;2.30;;
20458;SDS011;10388;52.314;7.938;2023-09-08T12:08:25;3.72;;;2.30;;
20458;SDS011;10388;52.314;7.938;2023-09-08T12:10:57;4.28;;;2.67;;
20458;SDS011;10388;52.314;7.938;2023-09-08T12:13:27;3.33;;;2.50;;
20458;SDS011;10388;52.314;7.938;2023-09-08T12:16:01;3.17;;;2.55;;
20458;SDS011;10388;52.314;7.938;2023-09-08T12:18:38;4.35;;;2.70;;
20458;SDS011;10388;52.314;7.938;2023-09-08T12:21:15;6.65;;;2.50;;
20458;SDS011;10388;52.314;7.938;2023-09-08T12:23:49;2.40;;;2.20;;
20458;SDS011;10388;52.314;7.938;2023-09-08T12:26:22;2.95;;;2.75;;
20458;SDS011;10388;52.314;7.938;2023-09-08T12:28:55;5.65;;;2.60;;
20458;SDS011;10388;52.314;7.938;2023-09-08T12:31:28;3.83;;;3.15;;
20458;SDS011;10388;52.314;7.938;2023-09-08T12:34:00;4.13;;;2.58;;
20458;SDS011;10388;52.314;7.938;2023-09-08T12:36:31;2.53;;;2.30;;
20458;SDS011;10388;52.314;7.938;2023-09-08T12:39:03;2.50;;;2.30;;
20458;SDS011;10388;52.314;7.938;2023-09-08T12:41:35;2.83;;;2.50;;
20458;SDS011;10388;52.314;7.938;2023-09-08T12:44:07;3.92;;;2.60;;
20458;SDS011;10388;52.314;7.938;2023-09-08T12:46:38;2.38;;;2.13;;
20458;SDS011;10388;52.314;7.938;2023-09-08T12:49:09;2.63;;;2.33;;
20458;SDS011;10388;52.314;7.938;2023-09-08T12:51:40;5.18;;;2.53;;
20458;SDS011;10388;52.314;7.938;2023-09-08T12:54:11;4.25;;;2.60;;
20458;SDS011;10388;52.314;7.938;2023-09-08T12:56:54;4.05;;;2.42;;
20458;SDS011;10388;52.314;7.938;2023-09-08T12:59:25;2.88;;;2.47;;
20458;SDS011;10388;52.314;7.938;2023-09-08T13:01:55;2.75;;;2.55;;
20458;SDS011;10388;52.314;7.938;2023-09-08T13:04:27;2.60;;;2.33;;
20458;SDS011;10388;52.314;7.938;2023-09-08T13:06:58;3.17;;;2.30;;
20458;SDS011;10388;52.314;7.938;2023-09-08T13:09:31;3.40;;;2.47;;
20458;SDS011;10388;52.314;7.938;2023-09-08T13:12:02;5.30;;;2.83;;
20458;SDS011;10388;52.314;7.938;2023-09-08T13:14:33;3.55;;;2.53;;
20458;SDS011;10388;52.314;7.938;2023-09-08T13:17:05;2.88;;;2.55;;
20458;SDS011;10388;52.314;7.938;2023-09-08T13:19:36;3.28;;;2.75;;
20458;SDS011;10388;52.314;7.938;2023-09-08T13:22:12;2.80;;;2.60;;
20458;SDS011;10388;52.314;7.938;2023-09-08T13:24:56;6.18;;;2.60;;
20458;SDS011;10388;52.314;7.938;2023-09-08T13:27:27;3.85;;;2.53;;
20458;SDS011;10388;52.314;7.938;2023-09-08T13:30:13;2.83;;;2.55;;
20458;SDS011;10388;52.314;7.938;2023-09-08T13:32:48;4.05;;;2.75;;
20458;SDS011;10388;52.314;7.938;2023-09-08T13:35:19;4.28;;;2.47;;
20458;SDS011;10388;52.314;7.938;2023-09-08T13:37:50;5.40;;;2.70;;
20458;SDS011;10388;52.314;7.938;2023-09-08T13:40:20;4.20;;;2.38;;
20458;SDS011;10388;52.314;7.938;2023-09-08T13:42:51;2.70;;;2.47;;
20458;SDS011;10388;52.314;7.938;2023-09-08T13:45:21;2.72;;;2.53;;
20458;SDS011;10388;52.314;7.938;2023-09-08T13:47:52;3.05;;;2.60;;
20458;SDS011;10388;52.314;7.938;2023-09-08T13:50:22;2.78;;;2.25;;
20458;SDS011;10388;52.314;7.938;2023-09-08T13:52:53;2.50;;;2.30;;
20458;SDS011;10388;52.314;7.938;2023-09-08T13:55:24;2.60;;;2.40;;
20458;SDS011;10388;52.314;7.938;2023-09-08T13:57:54;3.63;;;2.53;;
20458;SDS011;10388;52.314;7.938;2023-09-08T14:00:25;3.08;;;2.50;;
20458;SDS011;10388;52.314;7.938;2023-09-08T14:02:55;4.05;;;2.38;;
20458;SDS011;10388;52.314;7.938;2023-09-08T14:05:26;3.60;;;2.28;;
20458;SDS011;10388;52.314;7.938;2023-09-08T14:07:56;3.58;;;2.55;;
20458;SDS011;10388;52.314;7.938;2023-09-08T14:10:27;3.22;;;2.80;;
20458;SDS011;10388;52.314;7.938;2023-09-08T14:12:57;2.93;;;2.13;;
20458;SDS011;10388;52.314;7.938;2023-09-08T14:15:28;2.97;;;2.40;;
20458;SDS011;10388;52.314;7.938;2023-09-08T14:17:59;3.47;;;2.80;;
20458;SDS011;10388;52.314;7.938;2023-09-08T14:20:29;2.40;;;2.20;;
20458;SDS011;10388;52.314;7.938;2023-09-08T14:23:00;3.75;;;2.90;;
20458;SDS011;10388;52.314;7.938;2023-09-08T14:25:30;3.10;;;2.83;;
20458;SDS011;10388;52.314;7.938;2023-09-08T14:28:01;3.05;;;2.40;;
20458;SDS011;10388;52.314;7.938;2023-09-08T14:30:33;3.47;;;2.58;;
20458;SDS011;10388;52.314;7.938;2023-09-08T14:33:05;3.20;;;2.75;;
20458;SDS011;10388;52.314;7.938;2023-09-08T14:35:40;2.60;;;2.40;;
20458;SDS011;10388;52.314;7.938;2023-09-08T14:38:12;3.10;;;2.67;;
20458;SDS011;10388;52.314;7.938;2023-09-08T14:40:55;2.47;;;2.25;;
20458;SDS011;10388;52.314;7.938;2023-09-08T14:43:30;3.83;;;2.60;;
20458;SDS011;10388;52.314;7.938;2023-09-08T14:46:01;3.13;;;2.83;;
20458;SDS011;10388;52.314;7.938;2023-09-08T14:48:33;3.23;;;2.77;;
20458;SDS011;10388;52.314;7.938;2023-09-08T14:51:03;5.47;;;2.73;;
20458;SDS011;10388;52.314;7.938;2023-09-08T14:53:34;3.00;;;2.70;;
20458;SDS011;10388;52.314;7.938;2023-09-08T14:56:04;2.42;;;2.20;;
20458;SDS011;10388;52.314;7.938;2023-09-08T14:58:35;3.08;;;2.85;;
20458;SDS011;10388;52.314;7.938;2023-09-08T15:01:05;3.23;;;2.93;;
20458;SDS011;10388;52.314;7.938;2023-09-08T15:03:37;3.38;;;2.85;;
20458;SDS011;10388;52.314;7.938;2023-09-08T15:06:08;3.00;;;2.70;;
20458;SDS011;10388;52.314;7.938;2023-09-08T15:08:39;3.97;;;2.57;;
20458;SDS011;10388;52.314;7.938;2023-09-08T15:11:12;5.37;;;2.30;;
20458;SDS011;10388;52.314;7.938;2023-09-08T15:13:43;3.10;;;2.77;;
20458;SDS011;10388;52.314;7.938;2023-09-08T15:16:13;4.95;;;2.72;;
20458;SDS011;10388;52.314;7.938;2023-09-08T15:18:44;2.95;;;2.70;;
20458;SDS011;10388;52.314;7.938;2023-09-08T15:21:15;2.60;;;2.40;;
20458;SDS011;10388;52.314;7.938;2023-09-08T15:23:45;2.40;;;2.20;;
20458;SDS011;10388;52.314;7.938;2023-09-08T15:26:16;3.33;;;2.75;;
20458;SDS011;10388;52.314;7.938;2023-09-08T15:28:47;4.25;;;2.75;;
20458;SDS011;10388;52.314;7.938;2023-09-08T15:31:18;3.70;;;2.60;;
20458;SDS011;10388;52.314;7.938;2023-09-08T15:33:48;3.20;;;2.83;;
20458;SDS011;10388;52.314;7.938;2023-09-08T15:36:21;5.30;;;2.90;;
20458;SDS011;10388;52.314;7.938;2023-09-08T15:38:52;3.92;;;2.83;;
20458;SDS011;10388;52.314;7.938;2023-09-08T15:41:22;3.90;;;2.80;;
20458;SDS011;10388;52.314;7.938;2023-09-08T15:43:53;3.27;;;3.00;;
20458;SDS011;10388;52.314;7.938;2023-09-08T15:46:23;3.17;;;2.70;;
20458;SDS011;10388;52.314;7.938;2023-09-08T15:48:54;4.03;;;2.63;;
20458;SDS011;10388;52.314;7.938;2023-09-08T15:51:25;4.40;;;2.80;;
20458;SDS011;10388;52.314;7.938;2023-09-08T15:53:55;6.97;;;2.80;;